Disclaimer

Please do not use the information listed here in-flight or in-navigation, as they are not provided to us by the airports but are provided by volunteers, so they might be outdated.

Search


Regions


Airport information page

Radio informations:
MANILA TWR - 118.1 MHz
RAMP 1 - 121.7 MHz
Ground (GND) - 121.9 MHz
MANILA RDO - 5447.5 MHz
Clearance delivery - 125.1 MHz
MANILA ATIS - 126.4 MHz
MANILA CON - 128.3 MHz
MANILA APP - 119.7 MHz

Airport informations:
Latitude: 14° 30' 31.13" N
Longitude: 121° 01' 10.49" E
Elevation: 75 feet - 23 meters
Operating hours: N/A
Operating agency: Military-civil joint use airport
Timezone: UTC+8
Fuel: Unknown fuel type or whether there is any fuel.

Runway information:
06/24 - 12261 x 197 feet< - >3737 x 60 meters
13/31 - 7408 x 148 feet< - >2258 x 45 meters

Recent METARs:
RPLL 190400Z 27006KT 220V310 9999 FEW023 BKN300 29/21 Q1013 NOSIG RMK A2991
RPLL 190400Z 27006KT 220V310 9999 FEW023 BKN300 29/21 Q1013 NOSIG RMK A2991
RPLL 190500Z 25008KT 9999 FEW023 SCT300 29/23 Q1012 NOSIG RMK A2988

Airport on the map: